Time;durP1;ratioP1;P1;durP2;ratioP2;P2;SDS_P1;SDS_P2;PMS_P1;PMS_P2;Temp;Humidity;BMP_temperature;BMP_pressure;BME280_temperature;BME280_humidity;BME280_pressure;Samples;Min_cycle;Max_cycle;Signal;HPM_P1;HPM_P2
2022/08/28 00:00:38;;;;;;;83.78;37.03;;;;;16.30;94143.00;;;;7391356;19;20166;-78
2022/08/28 00:03:20;;;;;;;87.38;36.05;;;;;16.30;94147.00;;;;7406171;19;20231;-77
2022/08/28 00:05:47;;;;;;;104.97;38.78;;;;;16.30;94140.00;;;;7405759;19;20625;-79
2022/08/28 00:08:21;;;;;;;89.45;37.25;;;;;16.30;94140.00;;;;7405299;19;20619;-79
2022/08/28 00:10:50;;;;;;;79.60;33.58;;;;;16.40;94145.00;;;;7405319;19;20137;-77
2022/08/28 00:13:20;;;;;;;82.55;34.00;;;;;16.30;94138.00;;;;7405359;19;20135;-77
2022/08/28 00:15:59;;;;;;;78.97;33.85;;;;;16.40;94149.00;;;;7405303;19;20615;-78
2022/08/28 00:18:28;;;;;;;67.15;32.28;;;;;16.40;94146.00;;;;7405666;19;20576;-77
2022/08/28 00:21:03;;;;;;;66.78;31.90;;;;;16.40;94155.00;;;;7406956;19;20572;-79
2022/08/28 00:23:31;;;;;;;67.03;30.50;;;;;16.40;94148.00;;;;7404403;19;20141;-79
2022/08/28 00:27:51;;;;;;;51.30;29.27;;;;;16.40;94154.00;;;;7405311;19;20644;-79
2022/08/28 00:29:06;;;;;;;63.70;27.83;;;;;16.40;94148.00;;;;7408650;19;20599;-79
2022/08/28 00:31:38;;;;;;;65.50;32.22;;;;;16.40;94145.00;;;;7403367;19;20174;-77
2022/08/28 00:34:13;;;;;;;58.47;28.00;;;;;16.40;94150.00;;;;7404363;19;20156;-77
2022/08/28 00:36:41;;;;;;;54.30;26.98;;;;;16.40;94145.00;;;;7406073;19;20155;-78
2022/08/28 00:39:09;;;;;;;44.97;25.88;;;;;16.40;94146.00;;;;7405829;19;20615;-78
2022/08/28 00:41:45;;;;;;;52.42;27.90;;;;;16.50;94146.00;;;;7404221;19;20641;-78
2022/08/28 00:44:14;;;;;;;51.53;24.95;;;;;16.40;94145.00;;;;7404060;19;20172;-78
2022/08/28 00:46:46;;;;;;;45.47;25.90;;;;;16.40;94138.00;;;;7406777;19;20144;-78
2022/08/28 00:49:24;;;;;;;37.53;22.50;;;;;16.30;94138.00;;;;7404521;19;20600;-77
2022/08/28 00:52:07;;;;;;;47.00;23.75;;;;;16.20;94133.00;;;;7404250;19;20658;-79
2022/08/28 00:54:47;;;;;;;48.45;23.90;;;;;16.10;94137.00;;;;7406581;19;20997;-78
2022/08/28 00:57:49;;;;;;;37.83;22.85;;;;;16.10;94123.00;;;;7404560;19;20124;-77
2022/08/28 01:00:42;;;;;;;42.67;25.17;;;;;16.00;94130.00;;;;7405082;19;20164;-81
2022/08/28 01:03:20;;;;;;;42.35;24.52;;;;;16.00;94132.00;;;;7404028;19;20196;-82
2022/08/28 01:06:08;;;;;;;48.13;25.65;;;;;16.00;94133.00;;;;7403889;19;20144;-81
2022/08/28 01:08:38;;;;;;;42.60;25.33;;;;;16.00;94132.00;;;;7402769;19;20216;-80
2022/08/28 01:11:18;;;;;;;76.47;31.30;;;;;16.00;94132.00;;;;7404854;19;20486;-81
2022/08/28 01:13:47;;;;;;;50.25;26.42;;;;;16.00;94121.00;;;;7398087;19;20476;-82
2022/08/28 01:16:22;;;;;;;53.65;27.17;;;;;16.00;94130.00;;;;7395686;19;20152;-81
2022/08/28 01:19:02;;;;;;;59.40;28.90;;;;;16.00;94134.00;;;;7398229;19;20156;-80
2022/08/28 01:22:04;;;;;;;45.97;28.60;;;;;16.10;94135.00;;;;7396258;19;20155;-79
2022/08/28 01:24:33;;;;;;;71.93;31.92;;;;;16.20;94137.00;;;;7397736;19;20148;-79
2022/08/28 01:27:07;;;;;;;51.28;27.83;;;;;16.20;94129.00;;;;7397980;19;20132;-81
2022/08/28 01:29:35;;;;;;;66.32;28.20;;;;;16.20;94131.00;;;;7394341;19;20179;-81
2022/08/28 01:32:04;;;;;;;64.93;30.92;;;;;16.20;94132.00;;;;7396437;19;20121;-82
2022/08/28 01:34:39;;;;;;;55.45;30.33;;;;;16.20;94133.00;;;;7397339;19;20680;-81
2022/08/28 01:37:06;;;;;;;63.05;30.40;;;;;16.30;94133.00;;;;7396947;19;20181;-81
2022/08/28 01:39:38;;;;;;;69.13;31.20;;;;;16.30;94135.00;;;;7393920;19;20676;-83
2022/08/28 01:42:12;;;;;;;59.10;29.70;;;;;16.30;94121.00;;;;7396189;19;20140;-81
2022/08/28 01:44:42;;;;;;;84.25;34.00;;;;;16.30;94126.00;;;;7396912;19;20486;-81
2022/08/28 01:47:10;;;;;;;58.63;28.83;;;;;16.30;94122.00;;;;7397537;19;20156;-81
2022/08/28 01:49:44;;;;;;;66.82;31.17;;;;;16.30;94124.00;;;;7395920;19;20525;-83
2022/08/28 01:52:12;;;;;;;56.90;31.23;;;;;16.30;94127.00;;;;7395948;19;20533;-83
2022/08/28 01:54:41;;;;;;;71.47;31.98;;;;;16.30;94130.00;;;;7397536;19;20812;-83
2022/08/28 01:57:15;;;;;;;66.40;33.05;;;;;16.30;94136.00;;;;7397098;19;20553;-82
2022/08/28 01:59:45;;;;;;;59.78;31.13;;;;;16.30;94135.00;;;;7397004;19;20193;-81
2022/08/28 02:02:12;;;;;;;67.97;31.92;;;;;16.20;94131.00;;;;7392173;19;20197;-81
2022/08/28 02:04:53;;;;;;;65.78;29.38;;;;;16.20;94128.00;;;;7399180;19;20136;-81
2022/08/28 02:07:20;;;;;;;61.35;30.30;;;;;16.20;94126.00;;;;7397191;19;20152;-80
2022/08/28 02:09:54;;;;;;;55.97;27.00;;;;;16.20;94127.00;;;;7394558;19;20149;-80
2022/08/28 02:12:22;;;;;;;59.60;29.25;;;;;16.20;94125.00;;;;7395079;19;20471;-80
2022/08/28 02:14:49;;;;;;;90.50;35.30;;;;;16.30;94138.00;;;;7396699;19;20136;-82
2022/08/28 02:17:23;;;;;;;60.78;28.60;;;;;16.30;94124.00;;;;7395292;19;20141;-82
2022/08/28 02:19:51;;;;;;;145.68;40.30;;;;;16.30;94130.00;;;;7394106;19;20498;-82
2022/08/28 02:22:18;;;;;;;85.05;31.10;;;;;16.40;94127.00;;;;7394147;19;20755;-83
2022/08/28 02:24:52;;;;;;;63.95;30.58;;;;;16.30;94125.00;;;;7395756;19;20140;-81
2022/08/28 02:27:20;;;;;;;66.80;30.10;;;;;16.40;94134.00;;;;7392888;19;20200;-84
2022/08/28 02:29:47;;;;;;;76.63;32.17;;;;;16.40;94131.00;;;;7392833;19;20173;-82
2022/08/28 02:32:22;;;;;;;64.13;30.08;;;;;16.40;94141.00;;;;7395489;19;20146;-82
2022/08/28 02:34:49;;;;;;;70.35;31.73;;;;;16.40;94140.00;;;;7396545;19;20580;-81
2022/08/28 02:37:16;;;;;;;94.03;35.30;;;;;16.40;94139.00;;;;7396166;19;20169;-82
2022/08/28 02:39:55;;;;;;;59.88;29.40;;;;;16.40;94142.00;;;;7390531;19;20198;-83
2022/08/28 02:42:22;;;;;;;70.25;33.00;;;;;16.40;94140.00;;;;7393565;19;20616;-80
2022/08/28 02:44:50;;;;;;;72.15;31.27;;;;;16.40;94135.00;;;;7394531;19;20186;-83
2022/08/28 02:47:24;;;;;;;73.00;31.83;;;;;16.40;94140.00;;;;7392103;19;20148;-84
2022/08/28 02:49:54;;;;;;;75.70;31.92;;;;;16.40;94132.00;;;;7393356;19;20145;-82
2022/08/28 02:52:23;;;;;;;66.72;30.40;;;;;16.40;94136.00;;;;7394094;19;20144;-84
2022/08/28 02:54:57;;;;;;;137.65;39.95;;;;;16.40;94130.00;;;;7394865;19;20592;-84
2022/08/28 02:57:26;;;;;;;107.60;38.08;;;;;16.40;94135.00;;;;7391398;19;20144;-80
2022/08/28 02:59:53;;;;;;;100.38;36.63;;;;;16.40;94131.00;;;;7394705;19;20137;-81
2022/08/28 03:02:35;;;;;;;83.25;33.90;;;;;16.40;94116.00;;;;7391687;19;20188;-82
2022/08/28 03:05:10;;;;;;;84.20;32.55;;;;;16.40;94119.00;;;;7394534;19;20148;-83
2022/08/28 03:07:45;;;;;;;174.07;39.95;;;;;16.40;94122.00;;;;7391966;19;20232;-84
2022/08/28 03:10:14;;;;;;;142.45;37.92;;;;;16.40;94117.00;;;;7391542;19;20529;-82
2022/08/28 03:12:43;;;;;;;170.20;40.50;;;;;16.40;94122.00;;;;7393238;19;20168;-81
2022/08/28 03:15:18;;;;;;;484.52;48.33;;;;;16.40;94122.00;;;;7390734;19;20576;-81
2022/08/28 03:17:45;;;;;;;651.28;47.13;;;;;16.40;94124.00;;;;7392149;19;20149;-80
2022/08/28 03:20:15;;;;;;;342.60;45.60;;;;;16.30;94123.00;;;;7393144;19;20129;-81
2022/08/28 03:25:35;;;;;;;350.25;44.33;;;;;16.30;94123.00;;;;7392097;19;20137;-81
2022/08/28 03:28:10;;;;;;;412.77;43.35;;;;;16.30;94120.00;;;;7391131;19;20693;-82
2022/08/28 03:30:38;;;;;;;194.13;41.58;;;;;16.30;94120.00;;;;7392935;19;20608;-81
2022/08/28 03:33:06;;;;;;;148.38;35.90;;;;;16.30;94124.00;;;;7395152;19;20173;-83
2022/08/28 03:35:40;;;;;;;342.65;49.42;;;;;16.30;94125.00;;;;7390807;19;20173;-83
2022/08/28 03:38:07;;;;;;;551.15;48.58;;;;;16.30;94132.00;;;;7391150;19;20155;-83
2022/08/28 03:40:41;;;;;;;138.68;32.28;;;;;16.30;94132.00;;;;7389794;19;20166;-82
2022/08/28 03:43:18;;;;;;;207.23;37.15;;;;;16.30;94129.00;;;;7393522;19;20144;-82
2022/08/28 03:45:59;;;;;;;375.23;47.35;;;;;16.30;94130.00;;;;7390253;19;20624;-82
2022/08/28 03:48:36;;;;;;;282.38;43.70;;;;;16.30;94133.00;;;;7392562;19;20595;-83
2022/08/28 03:51:13;;;;;;;357.73;43.13;;;;;16.30;94126.00;;;;7393045;19;20644;-82
2022/08/28 03:53:56;;;;;;;222.35;41.15;;;;;16.30;94130.00;;;;7392022;19;20144;-83
2022/08/28 03:56:26;;;;;;;382.05;45.83;;;;;16.30;94129.00;;;;7391970;19;20201;-83
2022/08/28 03:59:04;;;;;;;105.15;29.95;;;;;16.30;94140.00;;;;7394624;19;20653;-82
2022/08/28 04:01:37;;;;;;;186.10;37.53;;;;;16.30;94133.00;;;;7390239;19;20646;-84
2022/08/28 04:04:18;;;;;;;535.30;58.28;;;;;16.30;94128.00;;;;7391047;19;20171;-82
2022/08/28 04:06:47;;;;;;;744.00;60.78;;;;;16.40;94135.00;;;;7394106;19;20164;-85
2022/08/28 04:09:20;;;;;;;346.95;42.63;;;;;16.30;94138.00;;;;7390140;19;20137;-81
2022/08/28 04:11:48;;;;;;;227.15;38.17;;;;;16.30;94134.00;;;;7387775;19;20148;-82
2022/08/28 04:14:15;;;;;;;730.25;62.00;;;;;16.30;94134.00;;;;7392431;19;20129;-83
2022/08/28 04:16:50;;;;;;;807.22;58.50;;;;;16.30;94130.00;;;;7393074;19;20499;-83
2022/08/28 04:19:17;;;;;;;425.77;35.85;;;;;16.30;94126.00;;;;7393393;19;20140;-83
2022/08/28 04:21:45;;;;;;;430.25;44.60;;;;;16.30;94129.00;;;;7391146;19;20173;-84
2022/08/28 04:24:19;;;;;;;519.70;49.40;;;;;16.30;94138.00;;;;7390989;19;20166;-83
2022/08/28 04:26:46;;;;;;;497.02;52.58;;;;;16.30;94128.00;;;;7391666;19;20167;-85
2022/08/28 04:29:14;;;;;;;661.35;54.72;;;;;16.30;94138.00;;;;7389725;19;20121;-82
2022/08/28 04:31:51;;;;;;;367.80;42.22;;;;;16.30;94137.00;;;;7391047;19;20216;-85
2022/08/28 04:34:19;;;;;;;451.98;45.92;;;;;16.30;94138.00;;;;7391229;19;20495;-84
2022/08/28 04:36:50;;;;;;;407.48;40.25;;;;;16.30;94141.00;;;;7392387;19;20161;-81
2022/08/28 04:39:26;;;;;;;413.30;43.33;;;;;16.30;94136.00;;;;7389944;19;20140;-83
2022/08/28 04:41:57;;;;;;;549.80;44.65;;;;;16.30;94141.00;;;;7388417;19;20171;-80
2022/08/28 04:44:24;;;;;;;230.23;39.80;;;;;16.20;94131.00;;;;7390030;19;20129;-83
2022/08/28 04:46:58;;;;;;;592.95;54.75;;;;;16.20;94137.00;;;;7390980;19;20490;-83
2022/08/28 04:49:26;;;;;;;316.30;38.28;;;;;16.20;94151.00;;;;7393304;19;20157;-80
2022/08/28 04:51:54;;;;;;;224.05;37.20;;;;;16.20;94143.00;;;;7395506;19;20153;-83
2022/08/28 04:54:28;;;;;;;331.13;41.35;;;;;16.20;94148.00;;;;7398871;19;20568;-82
2022/08/28 04:56:55;;;;;;;337.30;38.70;;;;;16.20;94150.00;;;;7400811;19;20145;-80
2022/08/28 04:59:23;;;;;;;226.38;36.97;;;;;16.20;94151.00;;;;7396036;19;20141;-82
2022/08/28 05:02:04;;;;;;;453.65;46.55;;;;;16.30;94147.00;;;;7395222;19;20655;-84
2022/08/28 05:04:31;;;;;;;256.05;32.28;;;;;16.30;94149.00;;;;7398262;19;20144;-82
2022/08/28 05:07:06;;;;;;;72.97;28.35;;;;;16.30;94145.00;;;;7399604;19;20196;-83
2022/08/28 05:09:34;;;;;;;450.55;44.17;;;;;16.30;94153.00;;;;7396785;19;20548;-83
2022/08/28 05:12:03;;;;;;;491.17;41.58;;;;;16.30;94149.00;;;;7392769;19;20178;-82
2022/08/28 05:14:38;;;;;;;713.03;60.42;;;;;16.30;94149.00;;;;7398222;19;20667;-84
2022/08/28 05:17:08;;;;;;;892.92;69.97;;;;;16.40;94157.00;;;;7399072;19;20132;-84
2022/08/28 05:19:35;;;;;;;421.38;37.97;;;;;16.40;94150.00;;;;7395870;19;20141;-80
2022/08/28 05:22:09;;;;;;;527.95;43.92;;;;;16.40;94151.00;;;;7395207;19;20152;-82
2022/08/28 05:24:39;;;;;;;398.95;36.35;;;;;16.40;94151.00;;;;7398944;19;20660;-84
2022/08/28 05:27:08;;;;;;;410.33;40.00;;;;;16.40;94157.00;;;;7398791;19;20152;-87
2022/08/28 05:29:42;;;;;;;466.63;36.35;;;;;16.40;94153.00;;;;7389702;19;20156;-82
2022/08/28 05:32:09;;;;;;;627.40;44.30;;;;;16.40;94159.00;;;;7394900;19;20178;-81
2022/08/28 05:34:37;;;;;;;601.67;41.45;;;;;16.40;94157.00;;;;7398932;19;20154;-82
2022/08/28 05:37:11;;;;;;;394.30;36.50;;;;;16.40;94155.00;;;;7397458;19;20153;-83
2022/08/28 05:39:45;;;;;;;531.25;37.88;;;;;16.40;94167.00;;;;7395177;19;20159;-84
2022/08/28 05:42:19;;;;;;;882.40;55.10;;;;;16.40;94161.00;;;;7394675;19;20161;-82
2022/08/28 05:44:46;;;;;;;293.75;29.85;;;;;16.40;94167.00;;;;7397267;19;20185;-81
2022/08/28 05:47:20;;;;;;;365.77;29.27;;;;;16.40;94171.00;;;;7397877;19;20202;-83
2022/08/28 05:49:55;;;;;;;754.38;45.03;;;;;16.40;94169.00;;;;7395039;19;20627;-83
2022/08/28 05:52:23;;;;;;;486.58;40.65;;;;;16.40;94165.00;;;;7392196;19;20141;-82
2022/08/28 05:54:51;;;;;;;355.55;31.02;;;;;16.40;94169.00;;;;7397666;19;20588;-82
2022/08/28 05:57:25;;;;;;;164.10;25.80;;;;;16.40;94171.00;;;;7397754;19;20628;-81
2022/08/28 06:00:11;;;;;;;445.45;34.65;;;;;16.40;94165.00;;;;7393417;19;20212;-83
2022/08/28 06:02:52;;;;;;;127.20;22.13;;;;;16.40;94166.00;;;;7394222;19;20658;-82
2022/08/28 06:05:27;;;;;;;646.45;42.35;;;;;16.50;94161.00;;;;7395830;19;20161;-84
2022/08/28 06:08:01;;;;;;;343.27;30.00;;;;;16.50;94165.00;;;;7393857;19;20132;-80
2022/08/28 06:10:29;;;;;;;403.33;33.50;;;;;16.60;94169.00;;;;7394649;19;20544;-84
2022/08/28 06:12:56;;;;;;;705.75;43.20;;;;;16.50;94164.00;;;;7397119;19;20153;-80
2022/08/28 06:15:32;;;;;;;554.28;45.85;;;;;16.60;94168.00;;;;7397806;19;20168;-81
2022/08/28 06:18:00;;;;;;;1099.10;61.83;;;;;16.70;94168.00;;;;7395373;19;20152;-84
2022/08/28 06:20:28;;;;;;;364.35;33.38;;;;;16.70;94171.00;;;;7394645;19;20152;-82
2022/08/28 06:23:02;;;;;;;91.93;22.30;;;;;16.70;94173.00;;;;7397542;19;20508;-84
2022/08/28 06:25:30;;;;;;;707.03;43.13;;;;;16.70;94176.00;;;;7396591;19;20147;-84
2022/08/28 06:27:57;;;;;;;472.75;34.97;;;;;16.60;94168.00;;;;7394281;19;20519;-81
2022/08/28 06:30:31;;;;;;;488.35;36.10;;;;;16.70;94177.00;;;;7393608;19;20174;-80
2022/08/28 06:32:58;;;;;;;759.25;43.78;;;;;16.70;94178.00;;;;7396389;19;20169;-82
2022/08/28 06:35:26;;;;;;;643.35;37.05;;;;;16.70;94181.00;;;;7395672;19;20129;-82
2022/08/28 06:38:01;;;;;;;618.33;43.00;;;;;16.80;94182.00;;;;7394093;19;20640;-81
2022/08/28 06:40:29;;;;;;;508.00;33.45;;;;;16.80;94183.00;;;;7394461;19;20148;-83
2022/08/28 06:42:56;;;;;;;721.53;42.15;;;;;16.90;94185.00;;;;7397698;19;20592;-81
2022/08/28 06:45:30;;;;;;;359.98;31.17;;;;;16.90;94189.00;;;;7393967;19;20160;-82
2022/08/28 06:47:58;;;;;;;483.60;35.65;;;;;16.80;94190.00;;;;7393487;19;20149;-80
2022/08/28 06:50:25;;;;;;;251.02;32.85;;;;;16.80;94190.00;;;;7391994;19;20167;-82
2022/08/28 06:53:00;;;;;;;421.80;38.55;;;;;16.80;94194.00;;;;7394803;19;20145;-82
2022/08/28 06:55:37;;;;;;;386.73;34.35;;;;;16.80;94195.00;;;;7397581;19;20640;-82
2022/08/28 06:58:14;;;;;;;669.47;48.90;;;;;16.90;94200.00;;;;7394514;19;20141;-85
2022/08/28 07:00:42;;;;;;;526.03;38.70;;;;;16.90;94198.00;;;;7395368;19;20820;-84
2022/08/28 07:03:11;;;;;;;423.70;39.05;;;;;16.90;94200.00;;;;7395897;19;20585;-82
2022/08/28 07:05:52;;;;;;;241.05;28.80;;;;;16.80;94199.00;;;;7396028;19;20505;-81
2022/08/28 07:08:19;;;;;;;104.55;28.48;;;;;16.80;94204.00;;;;7394141;19;20132;-82
2022/08/28 07:10:56;;;;;;;38.97;23.85;;;;;16.90;94205.00;;;;7393565;19;20738;-83
2022/08/28 07:13:24;;;;;;;48.65;24.65;;;;;16.90;94204.00;;;;7396759;19;20473;-82
2022/08/28 07:15:52;;;;;;;69.20;26.20;;;;;16.90;94211.00;;;;7393988;19;20553;-82
2022/08/28 07:18:28;;;;;;;160.38;31.42;;;;;16.90;94214.00;;;;7394997;19;20148;-84
2022/08/28 07:20:59;;;;;;;310.80;33.10;;;;;16.90;94214.00;;;;7394684;19;20208;-82
2022/08/28 07:23:41;;;;;;;337.35;30.70;;;;;16.90;94214.00;;;;7396632;19;20484;-83
2022/08/28 07:26:13;;;;;;;489.20;30.85;;;;;16.80;94216.00;;;;7394302;19;20169;-81
2022/08/28 07:28:49;;;;;;;550.03;33.90;;;;;16.80;94214.00;;;;7396375;19;20512;-86
2022/08/28 07:31:22;;;;;;;92.78;20.83;;;;;16.90;94210.00;;;;7396891;19;20141;-83
2022/08/28 07:33:57;;;;;;;501.50;34.90;;;;;16.90;94217.00;;;;7396276;19;20124;-82
2022/08/28 07:36:26;;;;;;;174.25;25.40;;;;;17.00;94220.00;;;;7391062;19;20144;-83
2022/08/28 07:38:58;;;;;;;87.72;25.52;;;;;17.20;94223.00;;;;7395210;19;20155;-84
2022/08/28 07:41:35;;;;;;;407.38;37.55;;;;;17.40;94224.00;;;;7394415;19;20619;-84
2022/08/28 07:46:58;;;;;;;266.75;32.58;;;;;17.20;94235.00;;;;7392567;19;20137;-86
2022/08/28 07:49:26;;;;;;;177.75;29.60;;;;;17.30;94231.00;;;;7394099;19;20152;-86
2022/08/28 07:51:54;;;;;;;300.95;34.33;;;;;17.30;94232.00;;;;7389016;19;20478;-86
2022/08/28 07:54:28;;;;;;;102.53;25.80;;;;;17.30;94232.00;;;;7391982;19;20670;-85
2022/08/28 07:56:56;;;;;;;126.82;27.73;;;;;17.40;94228.00;;;;7393300;19;20212;-85
2022/08/28 07:59:24;;;;;;;120.10;25.63;;;;;17.30;94237.00;;;;7391052;19;20137;-85
2022/08/28 08:02:17;;;;;;;55.28;27.27;;;;;17.30;94239.00;;;;7390841;19;20180;-84
2022/08/28 08:04:51;;;;;;;66.72;25.15;;;;;17.40;94246.00;;;;7392941;19;20128;-82
2022/08/28 08:07:27;;;;;;;33.42;21.52;;;;;17.70;94241.00;;;;7391152;19;20132;-82
2022/08/28 08:09:54;;;;;;;32.78;22.90;;;;;17.90;94249.00;;;;7392093;19;20161;-83
2022/08/28 08:12:24;;;;;;;34.50;23.02;;;;;17.90;94245.00;;;;7390245;19;20753;-82
2022/08/28 08:14:58;;;;;;;32.13;21.48;;;;;18.00;94253.00;;;;7392595;19;20168;-83
2022/08/28 08:17:26;;;;;;;28.02;20.73;;;;;18.00;94258.00;;;;7393438;19;20153;-83
2022/08/28 08:19:54;;;;;;;28.17;20.35;;;;;18.10;94256.00;;;;7391771;19;20656;-80
2022/08/28 08:22:29;;;;;;;31.35;21.83;;;;;18.30;94265.00;;;;7390388;19;20133;-79
2022/08/28 08:24:56;;;;;;;24.80;18.98;;;;;18.30;94270.00;;;;7399738;19;20664;-80
2022/08/28 08:27:24;;;;;;;22.38;18.85;;;;;18.40;94268.00;;;;7400188;19;20600;-81
2022/08/28 08:29:58;;;;;;;26.00;20.02;;;;;18.20;94272.00;;;;7399367;19;20643;-80
2022/08/28 08:32:26;;;;;;;29.45;19.17;;;;;17.90;94275.00;;;;7395798;19;20596;-80
2022/08/28 08:34:54;;;;;;;25.67;19.73;;;;;17.80;94285.00;;;;7399784;19;20202;-81
2022/08/28 08:37:29;;;;;;;31.80;20.83;;;;;17.80;94279.00;;;;7398859;19;20176;-81
2022/08/28 08:39:59;;;;;;;25.98;20.05;;;;;17.70;94280.00;;;;7398985;19;20132;-81
2022/08/28 08:42:32;;;;;;;37.13;22.00;;;;;17.90;94276.00;;;;7399872;19;20139;-81
2022/08/28 08:45:11;;;;;;;28.42;19.95;;;;;18.10;94285.00;;;;7399622;19;20141;-81
2022/08/28 08:47:46;;;;;;;22.63;19.52;;;;;18.30;94293.00;;;;7398428;19;20688;-81
2022/08/28 08:50:24;;;;;;;30.98;19.50;;;;;18.10;94295.00;;;;7399084;19;20480;-80
2022/08/28 08:53:20;;;;;;;26.38;20.50;;;;;18.20;94295.00;;;;7399094;19;20683;-80
2022/08/28 08:55:57;;;;;;;25.58;19.27;;;;;18.20;94296.00;;;;7396425;19;20148;-81
2022/08/28 08:58:43;;;;;;;27.95;21.02;;;;;18.10;94292.00;;;;7397811;19;20144;-81
2022/08/28 09:01:45;;;;;;;28.73;21.73;;;;;18.40;94296.00;;;;7399186;19;20155;-80
2022/08/28 09:04:39;;;;;;;33.85;23.55;;;;;18.90;94295.00;;;;7394876;19;20874;-81
2022/08/28 09:07:19;;;;;;;27.40;19.95;;;;;19.10;94294.00;;;;7398486;19;20152;-82
2022/08/28 09:09:51;;;;;;;28.05;20.75;;;;;19.20;94294.00;;;;7396619;19;20613;-82
2022/08/28 09:12:27;;;;;;;26.98;18.48;;;;;18.90;94295.00;;;;7395055;19;20155;-80
2022/08/28 09:15:13;;;;;;;25.98;18.50;;;;;18.70;94307.00;;;;7399261;19;20129;-82
2022/08/28 09:17:54;;;;;;;24.33;19.05;;;;;18.80;94302.00;;;;7395182;19;20164;-81
2022/08/28 09:20:27;;;;;;;28.80;18.30;;;;;18.70;94303.00;;;;7397135;19;20706;-80
2022/08/28 09:23:01;;;;;;;27.80;18.85;;;;;18.50;94313.00;;;;7393370;19;20125;-81
2022/08/28 09:25:48;;;;;;;32.03;20.35;;;;;18.40;94306.00;;;;7400087;19;20472;-81
2022/08/28 09:28:31;;;;;;;33.88;19.23;;;;;18.40;94306.00;;;;7398045;19;20125;-80
2022/08/28 09:30:58;;;;;;;29.20;19.48;;;;;18.40;94316.00;;;;7398408;19;20148;-80
2022/08/28 09:33:38;;;;;;;25.85;17.92;;;;;18.70;94313.00;;;;7396918;19;20470;-80
2022/08/28 09:36:22;;;;;;;27.02;18.25;;;;;18.90;94306.00;;;;7395187;19;20216;-79
2022/08/28 09:39:42;;;;;;;25.30;18.02;;;;;19.30;94302.00;;;;7398141;19;20156;-80
2022/08/28 09:45:19;;;;;;;22.40;17.10;;;;;20.00;94303.00;;;;7399833;19;20156;-80
2022/08/28 09:47:49;;;;;;;22.92;17.00;;;;;20.10;94299.00;;;;7395646;19;20176;-81
2022/08/28 09:50:28;;;;;;;23.30;16.58;;;;;20.10;94313.00;;;;7396238;19;20152;-81
2022/08/28 09:53:09;;;;;;;19.42;13.77;;;;;20.10;94307.00;;;;7394676;19;20144;-81
2022/08/28 09:56:09;;;;;;;23.38;17.00;;;;;20.30;94306.00;;;;7397580;19;20145;-81
2022/08/28 09:59:00;;;;;;;17.92;13.38;;;;;20.40;94304.00;;;;7396368;19;20156;-81
2022/08/28 10:01:48;;;;;;;16.63;12.68;;;;;20.10;94302.00;;;;7391839;19;20148;-81
2022/08/28 10:04:52;;;;;;;16.13;12.30;;;;;20.20;94302.00;;;;7392949;19;20184;-80
2022/08/28 10:07:52;;;;;;;16.52;12.30;;;;;20.10;94302.00;;;;7397196;19;20136;-81
2022/08/28 10:10:48;;;;;;;16.02;11.93;;;;;20.50;94303.00;;;;7395203;19;20559;-79
2022/08/28 10:13:43;;;;;;;15.75;12.60;;;;;20.80;94307.00;;;;7394983;19;20627;-80
2022/08/28 10:16:30;;;;;;;14.13;10.90;;;;;20.80;94309.00;;;;7393237;19;20136;-80
2022/08/28 10:19:32;;;;;;;15.90;12.10;;;;;20.90;94310.00;;;;7392441;19;20149;-81
2022/08/28 10:22:27;;;;;;;12.35;10.93;;;;;20.70;94316.00;;;;7395170;19;20177;-80
2022/08/28 10:25:15;;;;;;;14.73;11.88;;;;;20.50;94304.00;;;;7397558;19;20148;-80
2022/08/28 10:27:59;;;;;;;15.65;12.25;;;;;20.80;94315.00;;;;7395089;19;20505;-79
2022/08/28 10:30:51;;;;;;;17.50;11.60;;;;;21.40;94300.00;;;;7396177;19;20536;-80
2022/08/28 10:33:34;;;;;;;15.93;12.00;;;;;21.90;94287.00;;;;7391035;19;20515;-79
2022/08/28 10:36:16;;;;;;;19.20;11.25;;;;;22.50;94293.00;;;;7391928;19;20179;-77
2022/08/28 10:39:13;;;;;;;16.02;11.68;;;;;23.00;94274.00;;;;7395215;19;20149;-81
2022/08/28 10:41:55;;;;;;;16.02;10.73;;;;;23.90;94277.00;;;;7393647;19;20137;-80
2022/08/28 10:44:54;;;;;;;12.80;9.02;;;;;23.90;94279.00;;;;7393243;19;20167;-80
2022/08/28 10:47:30;;;;;;;16.23;10.07;;;;;23.70;94277.00;;;;7391395;19;20177;-79
2022/08/28 10:50:05;;;;;;;10.68;8.20;;;;;23.70;94274.00;;;;7394007;19;20602;-80
2022/08/28 10:52:57;;;;;;;11.07;8.57;;;;;24.00;94265.00;;;;7393695;19;20145;-79
2022/08/28 10:55:36;;;;;;;12.18;8.45;;;;;24.80;94272.00;;;;7391544;19;20153;-79
2022/08/28 10:58:11;;;;;;;10.98;8.45;;;;;24.70;94288.00;;;;7391479;19;20497;-78
2022/08/28 11:00:55;;;;;;;8.60;7.30;;;;;23.80;94280.00;;;;7394863;19;20210;-78
2022/08/28 11:03:46;;;;;;;12.82;6.85;;;;;24.10;94276.00;;;;7391050;19;20535;-79
2022/08/28 11:06:27;;;;;;;8.90;6.78;;;;;24.60;94269.00;;;;7392873;19;20156;-78
2022/08/28 11:09:24;;;;;;;9.13;7.35;;;;;25.10;94276.00;;;;7394810;19;20137;-78
2022/08/28 11:12:09;;;;;;;10.70;8.07;;;;;24.80;94282.00;;;;7391560;19;20161;-79
2022/08/28 11:14:45;;;;;;;11.57;8.10;;;;;24.10;94300.00;;;;7394874;19;20124;-79
2022/08/28 11:17:26;;;;;;;11.30;8.50;;;;;23.60;94303.00;;;;7395811;19;20161;-78
2022/08/28 11:20:24;;;;;;;13.52;7.47;;;;;24.00;94290.00;;;;7392917;19;20571;-78
2022/08/28 11:23:14;;;;;;;13.32;6.95;;;;;24.40;94282.00;;;;7390835;19;20168;-77
2022/08/28 11:25:53;;;;;;;8.80;6.93;;;;;25.50;94278.00;;;;7391004;19;20643;-77
2022/08/28 11:28:24;;;;;;;11.35;6.72;;;;;25.60;94277.00;;;;7393856;19;20132;-80
2022/08/28 11:31:04;;;;;;;9.32;6.43;;;;;26.00;94268.00;;;;7393378;19;20148;-79
2022/08/28 11:33:37;;;;;;;10.27;6.72;;;;;26.70;94271.00;;;;7389387;19;20175;-80
2022/08/28 11:36:31;;;;;;;10.27;6.97;;;;;26.80;94286.00;;;;7392039;19;20148;-78
2022/08/28 11:39:04;;;;;;;8.63;5.90;;;;;26.40;94287.00;;;;7389613;19;20160;-79
2022/08/28 11:42:12;;;;;;;6.82;6.13;;;;;24.80;94298.00;;;;7391936;19;20655;-79
2022/08/28 11:44:44;;;;;;;6.78;6.10;;;;;23.40;94310.00;;;;7395236;19;20132;-79
2022/08/28 11:48:05;;;;;;;6.38;5.75;;;;;23.10;94317.00;;;;7391044;19;20133;-79
2022/08/28 11:50:57;;;;;;;8.15;7.03;;;;;22.60;94324.00;;;;7388259;19;20148;-78
2022/08/28 11:53:58;;;;;;;9.13;6.43;;;;;22.60;94328.00;;;;7391943;19;20184;-78
2022/08/28 11:57:00;;;;;;;8.95;7.32;;;;;22.20;94326.00;;;;7393885;19;20490;-80
2022/08/28 11:59:37;;;;;;;10.77;6.40;;;;;22.00;94336.00;;;;7391651;19;20513;-78
2022/08/28 12:02:46;;;;;;;8.82;6.50;;;;;22.00;94339.00;;;;7390177;19;20737;-79
2022/08/28 12:05:32;;;;;;;7.22;6.07;;;;;21.90;94340.00;;;;7390511;19;20160;-78
2022/08/28 12:08:03;;;;;;;7.65;6.03;;;;;22.30;94328.00;;;;7390854;19;20193;-79
2022/08/28 12:10:37;;;;;;;9.65;6.25;;;;;22.90;94325.00;;;;7393010;19;20995;-78
2022/08/28 12:13:29;;;;;;;8.75;6.05;;;;;22.90;94325.00;;;;7392775;19;20216;-78
2022/08/28 12:16:05;;;;;;;8.50;6.00;;;;;22.70;94321.00;;;;7391457;19;20140;-77
2022/08/28 12:18:41;;;;;;;7.05;6.28;;;;;22.60;94317.00;;;;7392796;19;20136;-77
2022/08/28 12:21:17;;;;;;;11.25;6.97;;;;;22.80;94319.00;;;;7391422;19;20204;-79
2022/08/28 12:24:19;;;;;;;9.05;6.30;;;;;22.90;94305.00;;;;7391581;19;20600;-79
2022/08/28 12:26:56;;;;;;;7.80;6.95;;;;;23.80;94292.00;;;;7391635;19;20141;-79
2022/08/28 12:29:31;;;;;;;7.28;6.38;;;;;24.60;94296.00;;;;7390131;19;20149;-80
2022/08/28 12:32:11;;;;;;;7.40;6.70;;;;;24.60;94291.00;;;;7392558;19;20624;-80
2022/08/28 12:34:57;;;;;;;6.95;5.88;;;;;24.60;94286.00;;;;7392695;19;20610;-79
2022/08/28 12:37:32;;;;;;;10.00;5.55;;;;;25.20;94295.00;;;;7390420;19;20495;-79
2022/08/28 12:40:40;;;;;;;7.90;5.78;;;;;25.40;94287.00;;;;7389490;19;20152;-79
2022/08/28 12:43:26;;;;;;;6.60;5.47;;;;;25.20;94288.00;;;;7393010;19;20113;-78
2022/08/28 12:46:23;;;;;;;6.95;5.53;;;;;25.70;94283.00;;;;7389804;19;20152;-79
2022/08/28 12:49:00;;;;;;;8.10;5.68;;;;;25.70;94279.00;;;;7387008;19;20145;-80
2022/08/28 12:51:31;;;;;;;6.68;5.38;;;;;25.90;94281.00;;;;7389023;19;20163;-79